createdAt,value
2023-04-04T04:00:23.487Z,2.40
2023-04-04T04:04:35.281Z,2.37
2023-04-04T04:08:47.273Z,2.27
2023-04-04T04:12:58.978Z,2.37
2023-04-04T04:17:10.611Z,2.40
2023-04-04T04:21:22.330Z,2.00
2023-04-04T04:25:33.858Z,2.43
2023-04-04T04:29:57.120Z,2.00
2023-04-04T04:34:09.412Z,2.00
2023-04-04T04:38:22.820Z,2.20
2023-04-04T04:42:34.889Z,2.20
2023-04-04T04:46:47.697Z,2.17
2023-04-04T04:51:01.396Z,2.53
2023-04-04T04:55:27.618Z,2.67
2023-04-04T04:59:48.882Z,2.30
2023-04-04T05:04:00.756Z,2.70
2023-04-04T05:08:22.692Z,2.40
2023-04-04T05:12:46.358Z,2.63
2023-04-04T05:17:04.670Z,2.70
2023-04-04T05:21:17.965Z,2.40
2023-04-04T05:25:31.090Z,2.77
2023-04-04T05:29:43.175Z,3.13
2023-04-04T05:33:54.981Z,3.10
2023-04-04T05:38:17.129Z,2.80
2023-04-04T05:42:31.195Z,2.40
2023-04-04T05:46:44.533Z,2.70
2023-04-04T05:50:56.832Z,2.30
2023-04-04T05:55:22.125Z,2.70
2023-04-04T05:59:35.091Z,2.40
2023-04-04T06:03:49.097Z,2.53
2023-04-04T06:08:07.684Z,3.00
2023-04-04T06:12:19.404Z,2.67
2023-04-04T06:16:31.660Z,2.77
2023-04-04T06:20:43.695Z,2.20
2023-04-04T06:24:56.018Z,2.53
2023-04-04T06:29:09.968Z,2.77
2023-04-04T06:33:23.383Z,2.70
2023-04-04T06:37:35.151Z,3.17
2023-04-04T06:41:55.470Z,2.87
2023-04-04T06:46:11.376Z,2.63
2023-04-04T06:50:23.047Z,3.10
2023-04-04T06:54:34.614Z,2.93
2023-04-04T06:58:46.333Z,3.30
2023-04-04T07:02:59.334Z,2.72
2023-04-04T07:07:12.089Z,2.70
2023-04-04T07:11:27.145Z,2.78
2023-04-04T07:15:38.794Z,2.67
2023-04-04T07:19:50.361Z,2.73
2023-04-04T07:24:02.430Z,2.80
2023-04-04T07:28:13.885Z,3.10
2023-04-04T07:32:25.374Z,2.70
2023-04-04T07:36:37.221Z,2.20
2023-04-04T07:40:50.188Z,2.30
2023-04-04T07:45:01.660Z,3.00
2023-04-04T07:49:13.270Z,2.70
2023-04-04T07:53:24.705Z,2.40
2023-04-04T07:57:38.908Z,2.40
2023-04-04T08:01:50.378Z,2.57
2023-04-04T08:06:01.920Z,1.93
2023-04-04T08:10:13.808Z,2.37
2023-04-04T08:14:25.591Z,2.30
2023-04-04T08:18:37.034Z,2.60
2023-04-04T08:22:48.840Z,2.07
2023-04-04T08:27:05.395Z,2.20
2023-04-04T08:31:17.477Z,2.20
2023-04-04T08:35:29.036Z,2.20
2023-04-04T08:39:40.494Z,2.10
2023-04-04T08:43:56.583Z,2.37
2023-04-04T08:48:08.695Z,2.37
2023-04-04T08:52:23.526Z,2.40
2023-04-04T08:56:35.892Z,2.17
2023-04-04T09:00:47.439Z,2.23
2023-04-04T09:05:06.078Z,2.13
2023-04-04T09:09:20.079Z,2.23
2023-04-04T09:13:31.772Z,2.30
2023-04-04T09:17:43.250Z,2.20
2023-04-04T09:21:54.720Z,2.93
2023-04-04T09:26:06.799Z,2.43
2023-04-04T09:30:18.267Z,1.90
2023-04-04T09:34:30.561Z,2.10
2023-04-04T09:38:45.592Z,2.43
2023-04-04T09:43:00.811Z,2.33
2023-04-04T09:47:30.942Z,2.70
2023-04-04T09:51:48.745Z,1.93
2023-04-04T09:56:00.669Z,2.10
2023-04-04T10:00:18.751Z,2.30
2023-04-04T10:04:32.228Z,2.27
2023-04-04T10:08:44.030Z,2.33
2023-04-04T10:12:57.736Z,2.53
2023-04-04T10:17:13.474Z,2.37
2023-04-04T10:21:25.009Z,2.20
2023-04-04T10:25:37.132Z,2.37
2023-04-04T10:29:48.875Z,2.57
2023-04-04T10:34:21.914Z,2.40
2023-04-04T10:38:41.929Z,2.70
2023-04-04T10:42:55.118Z,2.60
2023-04-04T10:47:14.995Z,2.90
2023-04-04T10:51:27.064Z,2.33
2023-04-04T10:55:41.335Z,2.77
2023-04-04T11:00:05.680Z,3.03
2023-04-04T11:04:21.228Z,2.97
2023-04-04T11:08:37.280Z,2.80
2023-04-04T11:13:05.424Z,2.80
2023-04-04T11:17:43.437Z,2.90
2023-04-04T11:22:08.554Z,2.85
2023-04-04T11:26:26.531Z,2.95
2023-04-04T11:30:44.841Z,2.83
2023-04-04T11:34:56.799Z,3.15
2023-04-04T11:39:33.743Z,3.05
2023-04-04T11:44:04.260Z,2.88
2023-04-04T11:48:18.906Z,3.05
2023-04-04T11:52:38.322Z,2.97
2023-04-04T11:56:50.342Z,3.40
2023-04-04T12:01:02.282Z,3.05
2023-04-04T12:05:14.588Z,3.00
2023-04-04T12:09:26.539Z,2.90
2023-04-04T12:13:50.677Z,2.53
2023-04-04T12:18:09.221Z,2.70
2023-04-04T12:22:21.019Z,3.40
2023-04-04T12:26:32.757Z,2.80
2023-04-04T12:30:46.079Z,3.17
2023-04-04T12:35:01.105Z,2.88
2023-04-04T12:39:13.966Z,2.78
2023-04-04T12:43:34.030Z,2.85
2023-04-04T12:47:55.679Z,2.65
2023-04-04T12:52:16.141Z,2.25
2023-04-04T12:56:28.278Z,2.45
2023-04-04T13:00:40.183Z,3.25
2023-04-04T13:04:55.980Z,2.80
2023-04-04T13:09:20.312Z,3.10
2023-04-04T13:13:40.705Z,2.85
2023-04-04T13:17:52.736Z,2.80
2023-04-04T13:22:08.664Z,2.70
2023-04-04T13:26:21.508Z,2.70
2023-04-04T13:30:33.695Z,2.67
2023-04-04T13:34:45.359Z,2.90
2023-04-04T13:38:57.378Z,3.05
2023-04-04T13:43:11.228Z,2.78
2023-04-04T13:47:24.104Z,3.17
2023-04-04T13:51:35.682Z,3.10
2023-04-04T13:56:13.215Z,2.45
2023-04-04T14:00:18.964Z,2.60
2023-04-04T14:04:30.731Z,2.83
2023-04-04T14:08:42.242Z,3.00
2023-04-04T14:12:53.795Z,2.90
2023-04-04T14:17:05.289Z,2.85
2023-04-04T14:21:16.860Z,3.00
2023-04-04T14:25:28.366Z,2.90
2023-04-04T14:29:39.859Z,2.83
2023-04-04T14:33:51.340Z,3.10
2023-04-04T14:38:02.975Z,3.03
2023-04-04T14:42:14.752Z,3.00
2023-04-04T14:46:27.025Z,2.95
2023-04-04T14:50:38.640Z,3.30
2023-04-04T14:54:50.398Z,3.00
2023-04-04T14:59:05.435Z,3.20
2023-04-04T15:03:17.338Z,2.63
2023-04-04T15:07:28.984Z,2.90
2023-04-04T15:11:40.644Z,2.60
2023-04-04T15:15:52.433Z,2.72
2023-04-04T15:20:04.153Z,3.72
2023-04-04T15:24:15.640Z,2.85
2023-04-04T15:28:28.535Z,2.65
2023-04-04T15:32:40.377Z,2.88
2023-04-04T15:36:52.923Z,3.20
2023-04-04T15:41:09.256Z,2.78
2023-04-04T15:45:20.969Z,2.95
2023-04-04T15:49:33.409Z,2.95
2023-04-04T15:53:45.626Z,2.83
2023-04-04T15:57:57.157Z,2.88
2023-04-04T16:02:08.744Z,3.05
2023-04-04T16:06:20.404Z,2.63
2023-04-04T16:10:31.922Z,3.13
2023-04-04T16:14:44.091Z,2.67
2023-04-04T16:18:55.746Z,3.08
2023-04-04T16:23:07.412Z,2.60
2023-04-04T16:27:18.981Z,2.72
2023-04-04T16:31:31.689Z,2.63
2023-04-04T16:35:43.207Z,2.90
2023-04-04T16:39:56.416Z,2.85
2023-04-04T16:44:08.012Z,2.85
2023-04-04T16:48:20.033Z,3.00
2023-04-04T16:52:31.550Z,2.78
2023-04-04T16:56:43.171Z,2.72
2023-04-04T17:00:54.804Z,2.38
2023-04-04T17:05:06.500Z,2.50
2023-04-04T17:09:18.002Z,2.47
2023-04-04T17:13:30.286Z,2.53
2023-04-04T17:17:42.616Z,2.70
2023-04-04T17:21:54.222Z,2.50
2023-04-04T17:26:05.786Z,2.80
2023-04-04T17:30:17.403Z,2.33
2023-04-04T17:34:28.977Z,3.33
2023-04-04T17:38:40.812Z,2.83
2023-04-04T17:42:52.522Z,2.60
2023-04-04T17:47:04.730Z,2.30
2023-04-04T17:51:16.406Z,2.42
2023-04-04T17:55:28.973Z,2.67
2023-04-04T17:59:41.192Z,6.65
2023-04-04T18:03:52.767Z,4.45
2023-04-04T18:08:05.022Z,4.18
2023-04-04T18:12:17.755Z,3.80
2023-04-04T18:16:30.347Z,2.67
2023-04-04T18:20:41.892Z,3.92
2023-04-04T18:24:53.414Z,4.47
2023-04-04T18:29:04.930Z,6.80
2023-04-04T18:33:16.764Z,12.50
2023-04-04T18:37:28.336Z,10.50
2023-04-04T18:41:39.799Z,8.73
2023-04-04T18:45:51.229Z,5.40
2023-04-04T18:50:03.379Z,4.38
2023-04-04T18:54:14.864Z,4.30
2023-04-04T18:58:27.048Z,4.75
2023-04-04T19:02:40.466Z,3.30
2023-04-04T19:06:53.344Z,3.53
2023-04-04T19:11:04.910Z,4.43
2023-04-04T19:15:16.566Z,5.57
2023-04-04T19:19:28.933Z,3.40
2023-04-04T19:23:40.739Z,4.13
2023-04-04T19:27:52.269Z,3.53
2023-04-04T19:32:16.698Z,4.30
2023-04-04T19:36:28.427Z,5.83
2023-04-04T19:40:56.048Z,5.63
2023-04-04T19:45:12.833Z,5.10
2023-04-04T19:49:27.942Z,5.37
2023-04-04T19:53:39.469Z,4.27
2023-04-04T19:57:51.043Z,3.80
2023-04-04T20:02:02.607Z,3.00
2023-04-04T20:06:31.566Z,3.10
2023-04-04T20:10:43.386Z,3.80
2023-04-04T20:14:59.176Z,3.90
2023-04-04T20:19:12.802Z,4.23
2023-04-04T20:23:26.098Z,4.47
2023-04-04T20:27:37.769Z,4.70
2023-04-04T20:32:01.120Z,5.87
2023-04-04T20:36:21.757Z,6.00
2023-04-04T20:40:39.384Z,5.70
2023-04-04T20:44:51.288Z,5.97
2023-04-04T20:49:04.844Z,5.50
2023-04-04T20:53:18.509Z,5.03
2023-04-04T20:57:30.202Z,5.07
2023-04-04T21:01:41.794Z,4.50
2023-04-04T21:05:58.336Z,4.27
2023-04-04T21:10:29.777Z,4.43
2023-04-04T21:14:41.279Z,4.60
2023-04-04T21:19:01.484Z,4.00
2023-04-04T21:23:25.402Z,3.70
2023-04-04T21:27:36.942Z,3.50
